Hauptseite
METAR-TAF:

METAR-TAF

Flughäfen :

Pontoise, Frankreich

Flugplatz Pontoise-Cormeilles

Breite: 49-05-48N, Länge: 002-02-27E, Höhe: 99 m

Beobachtung

Neuester Wetterbericht von vor 11 Minuten, um 09:00 UTC
Wind 6 kt aus West, variierte zwischen West/Südwest und Nordwest
Temperatur 15°C
Luftfeuchtigkeit 67%
Luftdruck 1019 hPa
Sichtweite 10 km oder mehr
Durchbrochene Bewölkung in der Höhe von 2100 ft
Durchbrochene Bewölkung in der Höhe von 4800 ft

METAR: LFPT 230900Z AUTO 28006KT 250V320 9999 BKN021 BKN048 15/09 Q1019

Zeit: 11:11 (09:11 UTC)


TAF: fehlend

Wetterbeobachtungen und Prognosen von mehr als 4000 Flughäfen (METAR und TAF Bericht).

Die verfügbaren Stationen werden durch gelbe und rote Markierungen auf der Karte dargestellt.

Führen Sie die Maus auf sie, um den Namen der Station zu sehen.

Darauf klicken, um die Beobachtung von Wetterbeobachtungen und Prognosen zu sehen.

Um die Karte zu ändern : klicken Sie auf den grünen Tasten mit einem schwarzen Kreuz Zum Vergrößern, auf den grünen Button mit einem Gedankenstrich zu verkleinern, oder auf die grünen Pfeile für benachbarte Karten.


METAR-TAF: